Station Historical Data
Daily Summary for December 13, 2011 Units:  English    Metric   Both
« Previous Day
Next Day »
Daily Weekly Monthly Yearly Custom
  High: Low: Average:
Temperature: 59.4 °F 46.6 °F 51.2 °F
Dew Point: 51.8 °F 44.8 °F 47.8 °F
Humidity: 96% 74% 89%
Wind Speed: 6.0mph 0.0mph 2mph
Wind Gust: 8.0mph - -
Wind- - ESE
Pressure: 30.48 in 30.33 in -
Precipitation: 0.00 in    
Historical Graphs
 
 
Tabular Data for December 13, 2011
Time Temperature Dew Point Pressure Wind Wind Speed Wind Gust Humidity Rainfall Rate (Hourly) Conditions
00:00 48.3 °F 44.9 °F 30.41 in SE 6.0 mph 8.0 mph 88% 0.00 in
00:01 48.3 °F 44.9 °F 30.42 in SE 6.0 mph 8.0 mph 88% 0.00 in
00:06 48.3 °F 44.9 °F 30.42 in SSE 6.0 mph 6.0 mph 88% 0.00 in
00:11 48.3 °F 44.9 °F 30.41 in ESE 6.0 mph 6.0 mph 88% 0.00 in
00:16 48.3 °F 44.9 °F 30.42 in SE 5.0 mph 7.0 mph 88% 0.00 in
00:21 48.3 °F 44.9 °F 30.42 in SE 3.0 mph 4.0 mph 88% 0.00 in
00:26 48.3 °F 44.9 °F 30.42 in SSE 4.0 mph 6.0 mph 88% 0.00 in
00:31 48.2 °F 44.8 °F 30.42 in SE 2.0 mph 5.0 mph 88% 0.00 in
00:36 48.2 °F 44.8 °F 30.42 in SSE 1.0 mph 2.0 mph 88% 0.00 in
00:41 48.2 °F 44.8 °F 30.42 in SE 1.0 mph 3.0 mph 88% 0.00 in
00:46 48.2 °F 44.8 °F 30.42 in SSE 2.0 mph 2.0 mph 88% 0.00 in
00:51 48.1 °F 45.0 °F 30.42 in SSE 2.0 mph 2.0 mph 89% 0.00 in
00:56 48.1 °F 45.0 °F 30.42 in SE 2.0 mph 3.0 mph 89% 0.00 in
01:01 48.1 °F 45.0 °F 30.42 in SE 1.0 mph 3.0 mph 89% 0.00 in
01:06 48.1 °F 45.0 °F 30.42 in ESE 3.0 mph 3.0 mph 89% 0.00 in
01:11 48.0 °F 44.9 °F 30.42 in SE 4.0 mph 4.0 mph 89% 0.00 in
01:16 48.0 °F 44.9 °F 30.41 in ESE 2.0 mph 4.0 mph 89% 0.00 in
01:21 48.0 °F 44.9 °F 30.41 in ESE 3.0 mph 4.0 mph 89% 0.00 in
01:26 47.9 °F 44.8 °F 30.41 in SE 2.0 mph 4.0 mph 89% 0.00 in
01:31 47.9 °F 44.8 °F 30.41 in ESE 6.0 mph 6.0 mph 89% 0.00 in
01:36 47.8 °F 45.0 °F 30.41 in ESE 6.0 mph 7.0 mph 90% 0.00 in
01:41 47.8 °F 45.0 °F 30.41 in ESE 5.0 mph 6.0 mph 90% 0.00 in
01:46 47.7 °F 45.2 °F 30.40 in ESE 6.0 mph 6.0 mph 91% 0.00 in
01:51 47.7 °F 45.2 °F 30.40 in SE 4.0 mph 6.0 mph 91% 0.00 in
01:56 47.6 °F 45.1 °F 30.41 in SE 3.0 mph 5.0 mph 91% 0.00 in
02:01 47.6 °F 45.1 °F 30.40 in ESE 3.0 mph 4.0 mph 91% 0.00 in
02:06 47.6 °F 45.1 °F 30.40 in SE 3.0 mph 4.0 mph 91% 0.00 in
02:11 47.5 °F 45.0 °F 30.40 in ESE 4.0 mph 5.0 mph 91% 0.00 in
02:16 47.5 °F 45.0 °F 30.40 in SE 1.0 mph 4.0 mph 91% 0.00 in
02:21 47.4 °F 44.9 °F 30.41 in Calm   1.0 mph 91% 0.00 in
02:26 47.4 °F 45.2 °F 30.41 in SE 3.0 mph 3.0 mph 92% 0.00 in
02:31 47.4 °F 45.2 °F 30.40 in SSE 3.0 mph 4.0 mph 92% 0.00 in
02:36 47.5 °F 45.3 °F 30.40 in SE 2.0 mph 5.0 mph 92% 0.00 in
02:41 47.5 °F 45.3 °F 30.40 in SE 2.0 mph 4.0 mph 92% 0.00 in
02:47 47.5 °F 45.3 °F 30.40 in SE 3.0 mph 4.0 mph 92% 0.00 in
02:52 47.4 °F 45.2 °F 30.40 in SSE 5.0 mph 5.0 mph 92% 0.00 in
02:57 47.4 °F 45.2 °F 30.40 in SE 4.0 mph 5.0 mph 92% 0.00 in
03:02 47.3 °F 45.1 °F 30.40 in SE 3.0 mph 5.0 mph 92% 0.00 in
03:07 47.3 °F 45.1 °F 30.40 in SE 4.0 mph 7.0 mph 92% 0.00 in
03:12 47.3 °F 45.1 °F 30.39 in ESE 5.0 mph 7.0 mph 92% 0.00 in
03:17 47.3 °F 45.1 °F 30.39 in East 3.0 mph 4.0 mph 92% 0.00 in
03:22 47.3 °F 45.1 °F 30.39 in East 2.0 mph 4.0 mph 92% 0.00 in
03:27 47.3 °F 45.1 °F 30.39 in ESE 3.0 mph 4.0 mph 92% 0.00 in
03:32 47.4 °F 45.2 °F 30.39 in SE 1.0 mph 4.0 mph 92% 0.00 in
03:37 47.4 °F 45.2 °F 30.39 in ESE 2.0 mph 4.0 mph 92% 0.00 in
03:42 47.4 °F 45.2 °F 30.39 in SE 2.0 mph 3.0 mph 92% 0.00 in
03:47 47.3 °F 45.1 °F 30.39 in ESE 1.0 mph 3.0 mph 92% 0.00 in
03:52 47.4 °F 45.2 °F 30.39 in Calm   2.0 mph 92% 0.00 in
03:57 47.3 °F 45.4 °F 30.40 in SE 1.0 mph 2.0 mph 93% 0.00 in
04:02 47.3 °F 45.4 °F 30.40 in SSW 1.0 mph 1.0 mph 93% 0.00 in
04:07 47.3 °F 45.4 °F 30.40 in Calm   1.0 mph 93% 0.00 in
04:12 47.3 °F 45.4 °F 30.41 in Calm   1.0 mph 93% 0.00 in
04:17 47.3 °F 45.4 °F 30.41 in Calm   1.0 mph 93% 0.00 in
04:22 47.3 °F 45.4 °F 30.41 in Calm   1.0 mph 93% 0.00 in
04:27 47.2 °F 45.6 °F 30.41 in Calm     94% 0.00 in
04:32 47.2 °F 45.6 °F 30.41 in Calm     94% 0.00 in
04:37 47.2 °F 45.6 °F 30.41 in SE 1.0 mph 1.0 mph 94% 0.00 in
04:42 47.1 °F 45.5 °F 30.41 in ESE 1.0 mph 1.0 mph 94% 0.00 in
04:47 47.1 °F 45.5 °F 30.41 in ESE 1.0 mph 1.0 mph 94% 0.00 in
04:52 47.0 °F 45.4 °F 30.41 in SE 1.0 mph 1.0 mph 94% 0.00 in
04:57 47.0 °F 45.4 °F 30.41 in Calm   2.0 mph 94% 0.00 in
05:02 46.9 °F 45.3 °F 30.41 in SE 1.0 mph 1.0 mph 94% 0.00 in
05:07 46.9 °F 45.5 °F 30.41 in Calm   1.0 mph 95% 0.00 in
05:12 46.9 °F 45.5 °F 30.41 in Calm     95% 0.00 in
05:17 46.9 °F 45.5 °F 30.41 in SE 1.0 mph 1.0 mph 95% 0.00 in
05:22 46.9 °F 45.5 °F 30.41 in ESE 1.0 mph 2.0 mph 95% 0.00 in
05:27 46.9 °F 45.5 °F 30.41 in ESE 3.0 mph 4.0 mph 95% 0.00 in
05:32 46.9 °F 45.5 °F 30.41 in SE 4.0 mph 5.0 mph 95% 0.00 in
05:37 47.0 °F 45.4 °F 30.41 in SE 1.0 mph 2.0 mph 94% 0.00 in
05:43 47.0 °F 45.4 °F 30.42 in South 3.0 mph 3.0 mph 94% 0.00 in
05:47 47.0 °F 45.4 °F 30.42 in ESE 1.0 mph 2.0 mph 94% 0.00 in
05:53 47.0 °F 45.4 °F 30.42 in ESE 2.0 mph 2.0 mph 94% 0.00 in
05:58 47.0 °F 45.7 °F 30.41 in SE 3.0 mph 4.0 mph 95% 0.00 in
06:03 46.9 °F 45.5 °F 30.41 in ESE 2.0 mph 3.0 mph 95% 0.00 in
06:08 46.9 °F 45.5 °F 30.41 in SE 3.0 mph 3.0 mph 95% 0.00 in
06:13 46.8 °F 45.5 °F 30.41 in SE 2.0 mph 3.0 mph 95% 0.00 in
06:18 46.8 °F 45.5 °F 30.41 in SE 2.0 mph 3.0 mph 95% 0.00 in
06:23 46.8 °F 45.5 °F 30.41 in SE 2.0 mph 3.0 mph 95% 0.00 in
06:28 46.8 °F 45.5 °F 30.42 in SSE 2.0 mph 2.0 mph 95% 0.00 in
06:33 46.8 °F 45.5 °F 30.42 in SSE 2.0 mph 2.0 mph 95% 0.00 in
06:38 46.8 °F 45.5 °F 30.42 in SSE 1.0 mph 1.0 mph 95% 0.00 in
06:43 46.8 °F 45.5 °F 30.42 in SE 3.0 mph 3.0 mph 95% 0.00 in
06:48 46.8 °F 45.7 °F 30.42 in Calm   3.0 mph 96% 0.00 in
06:53 46.8 °F 45.7 °F 30.42 in SE 1.0 mph 2.0 mph 96% 0.00 in
06:58 46.7 °F 45.6 °F 30.42 in SE 1.0 mph 2.0 mph 96% 0.00 in
07:03 46.7 °F 45.6 °F 30.42 in SE 2.0 mph 2.0 mph 96% 0.00 in
07:08 46.7 °F 45.6 °F 30.42 in ESE 1.0 mph 2.0 mph 96% 0.00 in
07:13 46.7 °F 45.6 °F 30.42 in ESE 1.0 mph 2.0 mph 96% 0.00 in
07:18 46.7 °F 45.6 °F 30.42 in Calm   2.0 mph 96% 0.00 in
07:23 46.6 °F 45.5 °F 30.42 in ESE 2.0 mph 2.0 mph 96% 0.00 in
07:28 46.6 °F 45.5 °F 30.43 in ESE 1.0 mph 2.0 mph 96% 0.00 in
07:33 46.6 °F 45.5 °F 30.42 in ESE 1.0 mph 2.0 mph 96% 0.00 in
07:38 46.6 °F 45.5 °F 30.42 in ESE 2.0 mph 3.0 mph 96% 0.00 in
07:43 46.6 °F 45.5 °F 30.42 in ESE 2.0 mph 3.0 mph 96% 0.00 in
07:48 46.6 °F 45.5 °F 30.42 in ESE 2.0 mph 3.0 mph 96% 0.00 in
07:53 46.7 °F 45.6 °F 30.42 in ESE 2.0 mph 3.0 mph 96% 0.00 in
07:58 46.7 °F 45.6 °F 30.43 in SE 1.0 mph 2.0 mph 96% 0.00 in
08:03 46.8 °F 45.7 °F 30.43 in ESE 1.0 mph 1.0 mph 96% 0.00 in
08:08 46.8 °F 45.7 °F 30.44 in ESE 1.0 mph 1.0 mph 96% 0.00 in
08:13 46.9 °F 45.8 °F 30.44 in SSE 1.0 mph 1.0 mph 96% 0.00 in
08:18 47.0 °F 45.9 °F 30.44 in SE 1.0 mph 1.0 mph 96% 0.00 in
08:23 47.1 °F 46.0 °F 30.44 in East 2.0 mph 2.0 mph 96% 0.00 in
08:28 47.1 °F 45.7 °F 30.44 in ESE 2.0 mph 3.0 mph 95% 0.00 in
08:33 47.2 °F 45.8 °F 30.44 in ESE 3.0 mph 6.0 mph 95% 0.00 in
08:38 47.3 °F 45.9 °F 30.45 in SE 3.0 mph 5.0 mph 95% 0.00 in
08:43 47.4 °F 46.0 °F 30.45 in ESE 1.0 mph 5.0 mph 95% 0.00 in
08:48 47.5 °F 46.1 °F 30.46 in SE 1.0 mph 3.0 mph 95% 0.00 in
08:53 47.5 °F 45.9 °F 30.46 in Calm   3.0 mph 94% 0.00 in
08:58 47.6 °F 46.0 °F 30.46 in ESE 3.0 mph 3.0 mph 94% 0.00 in
09:03 47.8 °F 46.2 °F 30.45 in SE 1.0 mph 3.0 mph 94% 0.00 in
09:08 47.9 °F 46.3 °F 30.45 in ESE 4.0 mph 4.0 mph 94% 0.00 in
09:13 48.0 °F 46.4 °F 30.45 in ESE 5.0 mph 5.0 mph 94% 0.00 in
09:19 48.1 °F 46.5 °F 30.44 in ESE 4.0 mph 5.0 mph 94% 0.00 in
09:24 48.3 °F 46.4 °F 30.45 in SE 3.0 mph 6.0 mph 93% 0.00 in
09:28 48.4 °F 46.5 °F 30.45 in ESE 4.0 mph 5.0 mph 93% 0.00 in
09:34 48.6 °F 46.7 °F 30.45 in SE 3.0 mph 5.0 mph 93% 0.00 in
09:39 48.7 °F 46.8 °F 30.45 in SE 4.0 mph 5.0 mph 93% 0.00 in
09:44 48.7 °F 46.8 °F 30.45 in ESE 3.0 mph 5.0 mph 93% 0.00 in
09:49 48.9 °F 47.0 °F 30.45 in SSE 3.0 mph 4.0 mph 93% 0.00 in
09:54 49.1 °F 46.9 °F 30.45 in ESE 3.0 mph 4.0 mph 92% 0.00 in
09:59 49.2 °F 47.0 °F 30.46 in SE 3.0 mph 4.0 mph 92% 0.00 in
10:04 49.2 °F 47.0 °F 30.46 in SE 1.0 mph 5.0 mph 92% 0.00 in
10:09 49.3 °F 46.8 °F 30.47 in SSW 3.0 mph 3.0 mph 91% 0.00 in
10:14 49.5 °F 47.0 °F 30.47 in SSE 1.0 mph 3.0 mph 91% 0.00 in
10:19 49.6 °F 47.1 °F 30.47 in SSE 2.0 mph 3.0 mph 91% 0.00 in
10:24 49.7 °F 47.2 °F 30.47 in SE 3.0 mph 5.0 mph 91% 0.00 in
10:29 49.8 °F 47.3 °F 30.48 in South 4.0 mph 4.0 mph 91% 0.00 in
10:34 50.0 °F 47.5 °F 30.47 in SE 3.0 mph 5.0 mph 91% 0.00 in
10:39 50.3 °F 47.8 °F 30.47 in SE 4.0 mph 7.0 mph 91% 0.00 in
10:44 50.3 °F 47.5 °F 30.47 in SSE 4.0 mph 6.0 mph 90% 0.00 in
10:49 50.4 °F 47.6 °F 30.47 in SE 4.0 mph 7.0 mph 90% 0.00 in
10:54 50.3 °F 47.5 °F 30.48 in SW 1.0 mph 5.0 mph 90% 0.00 in
10:59 50.6 °F 48.1 °F 30.48 in SSE 2.0 mph 6.0 mph 91% 0.00 in
11:04 50.8 °F 48.0 °F 30.48 in SSE 3.0 mph 5.0 mph 90% 0.00 in
11:09 50.8 °F 48.0 °F 30.47 in South 2.0 mph 5.0 mph 90% 0.00 in
11:14 51.4 °F 48.3 °F 30.47 in SSE 3.0 mph 4.0 mph 89% 0.00 in
11:19 51.6 °F 48.5 °F 30.47 in SE 2.0 mph 5.0 mph 89% 0.00 in
11:24 51.6 °F 48.2 °F 30.47 in SE 3.0 mph 6.0 mph 88% 0.00 in
11:29 51.5 °F 48.4 °F 30.47 in SSE 2.0 mph 2.0 mph 89% 0.00 in
11:34 52.1 °F 48.7 °F 30.46 in SE 2.0 mph 5.0 mph 88% 0.00 in
11:40 52.4 °F 48.7 °F 30.46 in Calm   4.0 mph 87% 0.00 in
11:45 52.6 °F 48.8 °F 30.46 in SE 3.0 mph 4.0 mph 87% 0.00 in
11:50 52.7 °F 49.0 °F 30.46 in SSE 2.0 mph 5.0 mph 87% 0.00 in
11:55 52.9 °F 48.8 °F 30.46 in SSE 4.0 mph 4.0 mph 86% 0.00 in
12:00 53.0 °F 49.2 °F 30.46 in SSW 3.0 mph 4.0 mph 87% 0.00 in
12:05 53.1 °F 49.0 °F 30.46 in SE 2.0 mph 3.0 mph 86% 0.00 in
12:10 53.4 °F 49.3 °F 30.46 in SSW 1.0 mph 4.0 mph 86% 0.00 in
12:15 53.6 °F 49.2 °F 30.45 in SSE 1.0 mph 3.0 mph 85% 0.00 in
12:20 53.8 °F 49.1 °F 30.45 in West 1.0 mph 2.0 mph 84% 0.00 in
12:25 54.0 °F 49.6 °F 30.45 in East 3.0 mph 5.0 mph 85% 0.00 in
12:30 54.0 °F 49.3 °F 30.45 in SE 1.0 mph 3.0 mph 84% 0.00 in
12:35 53.9 °F 49.2 °F 30.45 in SE 4.0 mph 5.0 mph 84% 0.00 in
12:40 53.8 °F 49.1 °F 30.44 in East 2.0 mph 3.0 mph 84% 0.00 in
12:45 53.9 °F 49.5 °F 30.44 in SE 3.0 mph 5.0 mph 85% 0.00 in
12:50 53.9 °F 49.2 °F 30.43 in ESE 3.0 mph 5.0 mph 84% 0.00 in
12:55 53.9 °F 49.5 °F 30.43 in ESE 1.0 mph 3.0 mph 85% 0.00 in
13:00 54.2 °F 49.5 °F 30.42 in East 4.0 mph 5.0 mph 84% 0.00 in
13:05 54.3 °F 49.6 °F 30.42 in East 3.0 mph 4.0 mph 84% 0.00 in
13:10 54.8 °F 49.7 °F 30.42 in NW 3.0 mph 3.0 mph 83% 0.00 in
13:15 55.1 °F 50.0 °F 30.42 in North 2.0 mph 3.0 mph 83% 0.00 in
13:20 55.2 °F 49.8 °F 30.42 in Calm   3.0 mph 82% 0.00 in
13:25 55.4 °F 50.0 °F 30.42 in ENE 1.0 mph 2.0 mph 82% 0.00 in
13:30 55.3 °F 49.9 °F 30.42 in East 2.0 mph 3.0 mph 82% 0.00 in
13:35 55.6 °F 50.5 °F 30.41 in East 2.0 mph 3.0 mph 83% 0.00 in
13:40 55.6 °F 50.2 °F 30.41 in ESE 2.0 mph 3.0 mph 82% 0.00 in
13:45 55.5 °F 50.1 °F 30.41 in NNE 3.0 mph 4.0 mph 82% 0.00 in
13:50 55.7 °F 50.3 °F 30.41 in NE 1.0 mph 2.0 mph 82% 0.00 in
13:55 56.2 °F 50.8 °F 30.41 in Calm   1.0 mph 82% 0.00 in
14:00 57.0 °F 50.9 °F 30.41 in South 2.0 mph 3.0 mph 80% 0.00 in
14:05 57.3 °F 50.8 °F 30.41 in North 1.0 mph 4.0 mph 79% 0.00 in
14:10 57.0 °F 50.9 °F 30.40 in East 3.0 mph 3.0 mph 80% 0.00 in
14:15 57.2 °F 51.1 °F 30.40 in ENE 4.0 mph 5.0 mph 80% 0.00 in
14:21 57.2 °F 50.8 °F 30.40 in Calm   2.0 mph 79% 0.00 in
14:26 57.2 °F 51.4 °F 30.39 in SE 1.0 mph 3.0 mph 81% 0.00 in
14:31 57.5 °F 51.0 °F 30.39 in SE 1.0 mph 3.0 mph 79% 0.00 in
14:36 57.9 °F 51.4 °F 30.39 in NNE 2.0 mph 3.0 mph 79% 0.00 in
14:41 58.2 °F 51.0 °F 30.39 in SE 4.0 mph 4.0 mph 77% 0.00 in
14:46 57.9 °F 51.1 °F 30.39 in East 5.0 mph 5.0 mph 78% 0.00 in
14:51 57.6 °F 51.1 °F 30.39 in ESE 3.0 mph 3.0 mph 79% 0.00 in
14:56 57.9 °F 51.4 °F 30.38 in ESE 2.0 mph 3.0 mph 79% 0.00 in
15:01 58.0 °F 51.2 °F 30.38 in NNE 1.0 mph 4.0 mph 78% 0.00 in
15:06 58.0 °F 51.2 °F 30.38 in ENE 5.0 mph 5.0 mph 78% 0.00 in
15:11 58.1 °F 51.3 °F 30.38 in NNW 1.0 mph 4.0 mph 78% 0.00 in
15:16 58.4 °F 51.2 °F 30.38 in NE 2.0 mph 5.0 mph 77% 0.00 in
15:21 58.3 °F 51.1 °F 30.38 in NE 5.0 mph 5.0 mph 77% 0.00 in
15:26 58.0 °F 51.2 °F 30.37 in Calm   5.0 mph 78% 0.00 in
15:31 58.3 °F 51.5 °F 30.37 in East 2.0 mph 3.0 mph 78% 0.00 in
15:36 58.6 °F 51.8 °F 30.37 in NE 3.0 mph 6.0 mph 78% 0.00 in
15:41 58.6 °F 51.4 °F 30.37 in NE 4.0 mph 5.0 mph 77% 0.00 in
15:47 58.3 °F 51.1 °F 30.37 in NNE 2.0 mph 5.0 mph 77% 0.00 in
15:52 58.4 °F 51.6 °F 30.36 in ENE 4.0 mph 5.0 mph 78% 0.00 in
15:57 58.7 °F 51.5 °F 30.36 in SE 2.0 mph 3.0 mph 77% 0.00 in
16:02 58.9 °F 51.7 °F 30.36 in SE 3.0 mph 6.0 mph 77% 0.00 in
16:07 59.4 °F 51.8 °F 30.36 in SE 4.0 mph 6.0 mph 76% 0.00 in
16:12 59.4 °F 51.5 °F 30.36 in East 5.0 mph 8.0 mph 75% 0.00 in
16:17 59.2 °F 51.3 °F 30.36 in SE 1.0 mph 6.0 mph 75% 0.00 in
16:22 59.3 °F 51.4 °F 30.36 in East 3.0 mph 3.0 mph 75% 0.00 in
16:27 59.3 °F 51.4 °F 30.35 in ESE 2.0 mph 3.0 mph 75% 0.00 in
16:32 59.2 °F 51.3 °F 30.35 in SE 2.0 mph 5.0 mph 75% 0.00 in
16:37 59.1 °F 51.5 °F 30.35 in ESE 2.0 mph 5.0 mph 76% 0.00 in
16:42 59.0 °F 51.1 °F 30.36 in ESE 2.0 mph 3.0 mph 75% 0.00 in
16:47 59.1 °F 51.5 °F 30.36 in ENE 2.0 mph 2.0 mph 76% 0.00 in
16:52 59.1 °F 51.2 °F 30.36 in Calm   2.0 mph 75% 0.00 in
16:57 59.2 °F 51.3 °F 30.36 in Calm     75% 0.00 in
17:02 59.2 °F 50.9 °F 30.36 in Calm   1.0 mph 74% 0.00 in
17:07 59.0 °F 51.1 °F 30.36 in East 1.0 mph 1.0 mph 75% 0.00 in
17:12 58.7 °F 51.2 °F 30.36 in Calm   1.0 mph 76% 0.00 in
17:17 58.4 °F 50.9 °F 30.36 in East 1.0 mph 1.0 mph 76% 0.00 in
17:22 58.1 °F 50.6 °F 30.36 in East 2.0 mph 2.0 mph 76% 0.00 in
17:27 57.9 °F 50.7 °F 30.36 in Calm   1.0 mph 77% 0.00 in
17:32 57.5 °F 50.4 °F 30.36 in East 1.0 mph 1.0 mph 77% 0.00 in
17:37 57.0 °F 50.2 °F 30.36 in East 1.0 mph 2.0 mph 78% 0.00 in
17:42 56.6 °F 50.2 °F 30.36 in East 1.0 mph 1.0 mph 79% 0.00 in
17:47 56.3 °F 50.2 °F 30.35 in East 1.0 mph 1.0 mph 80% 0.00 in
17:52 56.3 °F 50.2 °F 30.35 in ENE 1.0 mph 2.0 mph 80% 0.00 in
17:58 56.1 °F 50.0 °F 30.35 in Calm   1.0 mph 80% 0.00 in
18:03 55.9 °F 50.2 °F 30.35 in ENE 1.0 mph 1.0 mph 81% 0.00 in
18:08 55.9 °F 50.2 °F 30.35 in Calm   2.0 mph 81% 0.00 in
18:13 55.8 °F 50.1 °F 30.35 in Calm   1.0 mph 81% 0.00 in
18:18 55.6 °F 49.9 °F 30.35 in Calm   1.0 mph 81% 0.00 in
18:23 55.1 °F 49.7 °F 30.35 in ENE 2.0 mph 2.0 mph 82% 0.00 in
18:28 54.4 °F 49.7 °F 30.35 in ENE 1.0 mph 1.0 mph 84% 0.00 in
18:33 54.3 °F 49.6 °F 30.35 in ENE 1.0 mph 1.0 mph 84% 0.00 in
18:38 54.3 °F 49.6 °F 30.35 in ENE 1.0 mph 1.0 mph 84% 0.00 in
18:43 54.3 °F 49.6 °F 30.35 in ENE 1.0 mph 2.0 mph 84% 0.00 in
18:48 54.1 °F 49.7 °F 30.35 in Calm   1.0 mph 85% 0.00 in
18:53 53.9 °F 49.5 °F 30.36 in Calm   1.0 mph 85% 0.00 in
18:58 53.8 °F 49.4 °F 30.36 in ENE 1.0 mph 1.0 mph 85% 0.00 in
19:03 53.7 °F 49.6 °F 30.36 in ENE 1.0 mph 2.0 mph 86% 0.00 in
19:08 53.6 °F 49.5 °F 30.36 in Calm   1.0 mph 86% 0.00 in
19:13 53.4 °F 49.3 °F 30.36 in Calm   1.0 mph 86% 0.00 in
19:18 53.2 °F 49.4 °F 30.36 in Calm   1.0 mph 87% 0.00 in
19:23 53.2 °F 49.4 °F 30.36 in ESE 2.0 mph 2.0 mph 87% 0.00 in
19:28 53.2 °F 49.4 °F 30.37 in Calm   2.0 mph 87% 0.00 in
19:33 53.1 °F 49.3 °F 30.37 in Calm   1.0 mph 87% 0.00 in
19:38 52.8 °F 49.0 °F 30.37 in ENE 1.0 mph 2.0 mph 87% 0.00 in
19:43 52.5 °F 49.0 °F 30.37 in NE 1.0 mph 2.0 mph 88% 0.00 in
19:49 52.5 °F 49.4 °F 30.37 in NE 2.0 mph 3.0 mph 89% 0.00 in
19:54 52.4 °F 49.0 °F 30.37 in NE 2.0 mph 3.0 mph 88% 0.00 in
19:59 52.3 °F 49.2 °F 30.37 in NE 2.0 mph 3.0 mph 89% 0.00 in
20:04 52.1 °F 49.0 °F 30.37 in NE 1.0 mph 2.0 mph 89% 0.00 in
20:09 52.1 °F 49.3 °F 30.37 in ENE 1.0 mph 3.0 mph 90% 0.00 in
20:14 52.0 °F 48.9 °F 30.37 in NE 1.0 mph 2.0 mph 89% 0.00 in
20:19 51.8 °F 49.0 °F 30.37 in NE 2.0 mph 2.0 mph 90% 0.00 in
20:24 51.6 °F 48.8 °F 30.37 in ENE 1.0 mph 2.0 mph 90% 0.00 in
20:29 51.4 °F 48.6 °F 30.36 in ENE 1.0 mph 1.0 mph 90% 0.00 in
20:34 51.4 °F 48.9 °F 30.37 in Calm   2.0 mph 91% 0.00 in
20:39 51.3 °F 48.8 °F 30.37 in NE 2.0 mph 2.0 mph 91% 0.00 in
20:44 51.3 °F 48.8 °F 30.36 in East 1.0 mph 2.0 mph 91% 0.00 in
20:49 51.2 °F 48.7 °F 30.36 in East 1.0 mph 2.0 mph 91% 0.00 in
20:54 51.0 °F 48.5 °F 30.36 in ESE 2.0 mph 2.0 mph 91% 0.00 in
20:59 50.9 °F 48.7 °F 30.36 in East 2.0 mph 3.0 mph 92% 0.00 in
21:04 51.1 °F 48.9 °F 30.36 in ENE 2.0 mph 3.0 mph 92% 0.00 in
21:09 51.2 °F 49.0 °F 30.36 in ENE 1.0 mph 1.0 mph 92% 0.00 in
21:14 51.2 °F 49.0 °F 30.36 in East 1.0 mph 2.0 mph 92% 0.00 in
21:19 51.1 °F 48.9 °F 30.36 in East 1.0 mph 1.0 mph 92% 0.00 in
21:24 51.0 °F 48.8 °F 30.36 in Calm   1.0 mph 92% 0.00 in
21:29 50.9 °F 48.7 °F 30.36 in ESE 1.0 mph 1.0 mph 92% 0.00 in
21:35 50.8 °F 48.6 °F 30.36 in ESE 1.0 mph 2.0 mph 92% 0.00 in
21:40 50.8 °F 48.8 °F 30.36 in East 2.0 mph 2.0 mph 93% 0.00 in
21:45 51.0 °F 49.0 °F 30.36 in East 2.0 mph 3.0 mph 93% 0.00 in
21:50 51.1 °F 49.2 °F 30.36 in East 1.0 mph 2.0 mph 93% 0.00 in
21:55 51.1 °F 48.9 °F 30.36 in ESE 1.0 mph 2.0 mph 92% 0.00 in
22:00 50.9 °F 48.7 °F 30.36 in East 1.0 mph 2.0 mph 92% 0.00 in
22:05 50.9 °F 48.7 °F 30.36 in East 2.0 mph 2.0 mph 92% 0.00 in
22:10 50.7 °F 48.8 °F 30.35 in ESE 1.0 mph 3.0 mph 93% 0.00 in
22:15 50.6 °F 48.7 °F 30.35 in East 1.0 mph 3.0 mph 93% 0.00 in
22:20 50.5 °F 48.6 °F 30.35 in East 1.0 mph 3.0 mph 93% 0.00 in
22:25 50.5 °F 48.6 °F 30.35 in East 1.0 mph 2.0 mph 93% 0.00 in
22:30 50.3 °F 48.4 °F 30.35 in East 3.0 mph 3.0 mph 93% 0.00 in
22:35 50.3 °F 48.4 °F 30.35 in Calm   2.0 mph 93% 0.00 in
22:40 50.4 °F 48.5 °F 30.34 in East 2.0 mph 3.0 mph 93% 0.00 in
22:45 50.5 °F 48.6 °F 30.35 in East 3.0 mph 3.0 mph 93% 0.00 in
22:50 50.6 °F 48.7 °F 30.35 in Calm   2.0 mph 93% 0.00 in
22:55 50.5 °F 48.6 °F 30.35 in Calm     93% 0.00 in
23:00 50.3 °F 48.4 °F 30.35 in Calm     93% 0.00 in
23:05 50.3 °F 48.6 °F 30.35 in Calm   2.0 mph 94% 0.00 in
23:10 50.2 °F 48.5 °F 30.35 in ESE 2.0 mph 2.0 mph 94% 0.00 in
23:15 50.3 °F 48.6 °F 30.35 in ESE 2.0 mph 3.0 mph 94% 0.00 in
23:20 50.2 °F 48.5 °F 30.35 in East 3.0 mph 3.0 mph 94% 0.00 in
23:25 50.1 °F 48.4 °F 30.35 in ESE 2.0 mph 4.0 mph 94% 0.00 in
23:30 50.0 °F 48.3 °F 30.34 in ESE 2.0 mph 4.0 mph 94% 0.00 in
23:35 49.5 °F 47.6 °F 30.34 in ESE 2.0 mph 3.0 mph 93% 0.00 in
23:40 49.6 °F 48.0 °F 30.34 in East 3.0 mph 4.0 mph 94% 0.00 in
23:46 49.8 °F 48.2 °F 30.34 in ESE 2.0 mph 4.0 mph 94% 0.00 in
23:51 49.9 °F 48.2 °F 30.34 in East 4.0 mph 4.0 mph 94% 0.00 in
23:56 50.0 °F 48.3 °F 30.33 in ESE 3.0 mph 4.0 mph 94% 0.00 in
Compliments of Weather Underground